Terminal Aerodrome Forecast
Issued by NWS

Home | Current Version | Previous Version | Text Only | Print | Product List | Glossary On
Versions: 1 2 3 4 5 6 7 8 9 10 11 12 13
000
FTUS44 KOUN 231721
TAFWWR
TAF
KWWR 231721Z 2318/2418 20021G31KT P6SM SKC
     FM232300 17027G35KT P6SM SCT060 OVC250
      TEMPO 2400/2402 6SM -TSRA BKN040CB
     FM240700 32020G30KT P6SM BKN035=

USA.gov is the U.S. government's official web portal to all federal, state and local government web resources and services.